sensor_id;sensor_type;location;lat;lon;timestamp;P1;durP1;ratioP1;P2;durP2;ratioP2
51995;SDS011;38010;53.264;6.592;2023-02-22T00:00:36;1.55;;;1.35;;
51995;SDS011;38010;53.264;6.592;2023-02-22T00:03:13;1.40;;;1.23;;
51995;SDS011;38010;53.264;6.592;2023-02-22T00:05:53;1.75;;;1.23;;
51995;SDS011;38010;53.264;6.592;2023-02-22T00:08:23;2.15;;;1.20;;
51995;SDS011;38010;53.264;6.592;2023-02-22T00:10:55;1.85;;;1.42;;
51995;SDS011;38010;53.264;6.592;2023-02-22T00:13:25;1.75;;;1.38;;
51995;SDS011;38010;53.264;6.592;2023-02-22T00:15:56;1.33;;;1.10;;
51995;SDS011;38010;53.264;6.592;2023-02-22T00:18:22;1.95;;;1.55;;
51995;SDS011;38010;53.264;6.592;2023-02-22T00:20:48;1.98;;;1.50;;
51995;SDS011;38010;53.264;6.592;2023-02-22T00:23:16;1.63;;;1.40;;
51995;SDS011;38010;53.264;6.592;2023-02-22T00:25:43;1.92;;;1.50;;
51995;SDS011;38010;53.264;6.592;2023-02-22T00:28:10;1.67;;;1.40;;
51995;SDS011;38010;53.264;6.592;2023-02-22T00:30:36;2.60;;;1.70;;
51995;SDS011;38010;53.264;6.592;2023-02-22T00:33:03;1.77;;;1.60;;
51995;SDS011;38010;53.264;6.592;2023-02-22T00:35:30;2.05;;;1.75;;
51995;SDS011;38010;53.264;6.592;2023-02-22T00:37:59;1.80;;;1.60;;
51995;SDS011;38010;53.264;6.592;2023-02-22T00:40:28;1.98;;;1.60;;
51995;SDS011;38010;53.264;6.592;2023-02-22T00:42:56;1.90;;;1.52;;
51995;SDS011;38010;53.264;6.592;2023-02-22T00:45:23;2.28;;;1.70;;
51995;SDS011;38010;53.264;6.592;2023-02-22T00:47:51;1.95;;;1.50;;
51995;SDS011;38010;53.264;6.592;2023-02-22T00:50:19;1.65;;;1.50;;
51995;SDS011;38010;53.264;6.592;2023-02-22T00:52:46;2.00;;;1.80;;
51995;SDS011;38010;53.264;6.592;2023-02-22T00:55:16;2.20;;;1.52;;
51995;SDS011;38010;53.264;6.592;2023-02-22T00:57:43;2.28;;;1.80;;
51995;SDS011;38010;53.264;6.592;2023-02-22T01:00:14;1.67;;;1.38;;
51995;SDS011;38010;53.264;6.592;2023-02-22T01:02:42;1.73;;;1.60;;
51995;SDS011;38010;53.264;6.592;2023-02-22T01:05:09;3.28;;;2.20;;
51995;SDS011;38010;53.264;6.592;2023-02-22T01:07:37;2.33;;;1.65;;
51995;SDS011;38010;53.264;6.592;2023-02-22T01:10:04;2.15;;;1.77;;
51995;SDS011;38010;53.264;6.592;2023-02-22T01:12:30;2.40;;;1.90;;
51995;SDS011;38010;53.264;6.592;2023-02-22T01:14:56;1.92;;;1.50;;
51995;SDS011;38010;53.264;6.592;2023-02-22T01:17:25;2.17;;;1.77;;
51995;SDS011;38010;53.264;6.592;2023-02-22T01:19:51;1.98;;;1.70;;
51995;SDS011;38010;53.264;6.592;2023-02-22T01:22:18;2.13;;;1.80;;
51995;SDS011;38010;53.264;6.592;2023-02-22T01:24:46;2.40;;;1.73;;
51995;SDS011;38010;53.264;6.592;2023-02-22T01:27:12;2.15;;;1.88;;
51995;SDS011;38010;53.264;6.592;2023-02-22T01:29:38;2.38;;;1.92;;
51995;SDS011;38010;53.264;6.592;2023-02-22T01:32:05;2.03;;;1.83;;
51995;SDS011;38010;53.264;6.592;2023-02-22T01:34:31;1.98;;;1.65;;
51995;SDS011;38010;53.264;6.592;2023-02-22T01:36:57;3.00;;;1.95;;
51995;SDS011;38010;53.264;6.592;2023-02-22T01:39:24;2.05;;;1.60;;
51995;SDS011;38010;53.264;6.592;2023-02-22T01:41:49;2.80;;;2.10;;
51995;SDS011;38010;53.264;6.592;2023-02-22T01:44:36;2.45;;;1.92;;
51995;SDS011;38010;53.264;6.592;2023-02-22T01:47:05;2.50;;;1.90;;
51995;SDS011;38010;53.264;6.592;2023-02-22T01:52:05;2.40;;;1.70;;
51995;SDS011;38010;53.264;6.592;2023-02-22T01:54:36;2.25;;;1.70;;
51995;SDS011;38010;53.264;6.592;2023-02-22T01:57:06;2.90;;;2.10;;
51995;SDS011;38010;53.264;6.592;2023-02-22T01:59:37;2.97;;;2.20;;
51995;SDS011;38010;53.264;6.592;2023-02-22T02:02:07;2.55;;;1.98;;
51995;SDS011;38010;53.264;6.592;2023-02-22T02:04:33;3.33;;;2.35;;
51995;SDS011;38010;53.264;6.592;2023-02-22T02:07:05;1.95;;;1.75;;
51995;SDS011;38010;53.264;6.592;2023-02-22T02:12:11;2.47;;;1.77;;
51995;SDS011;38010;53.264;6.592;2023-02-22T02:14:41;2.63;;;2.00;;
51995;SDS011;38010;53.264;6.592;2023-02-22T02:17:08;2.25;;;1.63;;
51995;SDS011;38010;53.264;6.592;2023-02-22T02:28:16;2.90;;;2.08;;
51995;SDS011;38010;53.264;6.592;2023-02-22T02:33:40;3.00;;;2.15;;
51995;SDS011;38010;53.264;6.592;2023-02-22T02:36:29;3.20;;;2.30;;
51995;SDS011;38010;53.264;6.592;2023-02-22T02:39:09;1.98;;;1.65;;
51995;SDS011;38010;53.264;6.592;2023-02-22T02:41:46;2.30;;;1.70;;
51995;SDS011;38010;53.264;6.592;2023-02-22T02:47:04;2.13;;;1.70;;
51995;SDS011;38010;53.264;6.592;2023-02-22T02:49:46;2.60;;;1.95;;
51995;SDS011;38010;53.264;6.592;2023-02-22T02:52:13;2.65;;;1.85;;
51995;SDS011;38010;53.264;6.592;2023-02-22T02:54:42;2.35;;;1.73;;
51995;SDS011;38010;53.264;6.592;2023-02-22T02:57:09;2.15;;;1.75;;
51995;SDS011;38010;53.264;6.592;2023-02-22T02:59:36;2.38;;;1.77;;
51995;SDS011;38010;53.264;6.592;2023-02-22T03:18:26;2.10;;;1.60;;
51995;SDS011;38010;53.264;6.592;2023-02-22T03:21:09;2.35;;;1.70;;
51995;SDS011;38010;53.264;6.592;2023-02-22T03:26:59;2.92;;;1.88;;
51995;SDS011;38010;53.264;6.592;2023-02-22T03:29:25;2.30;;;1.60;;
51995;SDS011;38010;53.264;6.592;2023-02-22T03:31:55;2.05;;;1.48;;
51995;SDS011;38010;53.264;6.592;2023-02-22T03:34:26;1.80;;;1.40;;
51995;SDS011;38010;53.264;6.592;2023-02-22T03:37:11;2.20;;;1.58;;
51995;SDS011;38010;53.264;6.592;2023-02-22T03:39:41;2.17;;;1.77;;
51995;SDS011;38010;53.264;6.592;2023-02-22T03:42:12;2.15;;;1.85;;
51995;SDS011;38010;53.264;6.592;2023-02-22T03:44:44;1.73;;;1.52;;
51995;SDS011;38010;53.264;6.592;2023-02-22T03:47:12;2.33;;;1.77;;
51995;SDS011;38010;53.264;6.592;2023-02-22T03:49:48;2.25;;;1.63;;
51995;SDS011;38010;53.264;6.592;2023-02-22T03:52:19;2.58;;;1.90;;
51995;SDS011;38010;53.264;6.592;2023-02-22T03:54:48;1.92;;;1.70;;
51995;SDS011;38010;53.264;6.592;2023-02-22T03:57:22;2.13;;;1.50;;
51995;SDS011;38010;53.264;6.592;2023-02-22T03:59:52;1.95;;;1.67;;
51995;SDS011;38010;53.264;6.592;2023-02-22T04:02:18;2.20;;;1.65;;
51995;SDS011;38010;53.264;6.592;2023-02-22T04:04:44;2.05;;;1.63;;
51995;SDS011;38010;53.264;6.592;2023-02-22T04:07:11;2.17;;;1.55;;
51995;SDS011;38010;53.264;6.592;2023-02-22T04:09:36;2.35;;;1.92;;
51995;SDS011;38010;53.264;6.592;2023-02-22T04:12:02;2.15;;;1.70;;
51995;SDS011;38010;53.264;6.592;2023-02-22T04:14:28;2.47;;;1.90;;
51995;SDS011;38010;53.264;6.592;2023-02-22T04:16:54;1.40;;;1.30;;
51995;SDS011;38010;53.264;6.592;2023-02-22T04:19:20;2.75;;;1.48;;
51995;SDS011;38010;53.264;6.592;2023-02-22T04:21:46;1.70;;;1.50;;
51995;SDS011;38010;53.264;6.592;2023-02-22T04:24:12;1.92;;;1.48;;
51995;SDS011;38010;53.264;6.592;2023-02-22T04:26:38;2.97;;;1.70;;
51995;SDS011;38010;53.264;6.592;2023-02-22T04:29:04;2.20;;;1.65;;
51995;SDS011;38010;53.264;6.592;2023-02-22T04:31:30;1.88;;;1.40;;
51995;SDS011;38010;53.264;6.592;2023-02-22T04:33:58;2.08;;;1.50;;
51995;SDS011;38010;53.264;6.592;2023-02-22T04:36:24;1.92;;;1.70;;
51995;SDS011;38010;53.264;6.592;2023-02-22T04:38:51;2.00;;;1.50;;
51995;SDS011;38010;53.264;6.592;2023-02-22T04:41:17;1.70;;;1.40;;
51995;SDS011;38010;53.264;6.592;2023-02-22T04:43:43;2.63;;;1.80;;
51995;SDS011;38010;53.264;6.592;2023-02-22T04:46:11;2.83;;;1.65;;
51995;SDS011;38010;53.264;6.592;2023-02-22T04:48:37;2.15;;;1.52;;
51995;SDS011;38010;53.264;6.592;2023-02-22T04:51:04;2.03;;;1.60;;
51995;SDS011;38010;53.264;6.592;2023-02-22T04:53:30;2.22;;;1.50;;
51995;SDS011;38010;53.264;6.592;2023-02-22T04:55:56;1.95;;;1.45;;
51995;SDS011;38010;53.264;6.592;2023-02-22T04:58:22;1.85;;;1.50;;
51995;SDS011;38010;53.264;6.592;2023-02-22T05:00:47;1.90;;;1.52;;
51995;SDS011;38010;53.264;6.592;2023-02-22T05:03:13;1.90;;;1.35;;
51995;SDS011;38010;53.264;6.592;2023-02-22T05:05:39;1.70;;;1.60;;
51995;SDS011;38010;53.264;6.592;2023-02-22T05:08:04;1.90;;;1.50;;
51995;SDS011;38010;53.264;6.592;2023-02-22T05:10:30;2.33;;;1.50;;
51995;SDS011;38010;53.264;6.592;2023-02-22T05:12:56;2.50;;;1.70;;
51995;SDS011;38010;53.264;6.592;2023-02-22T05:15:22;2.25;;;1.50;;
51995;SDS011;38010;53.264;6.592;2023-02-22T05:17:49;2.25;;;1.73;;
51995;SDS011;38010;53.264;6.592;2023-02-22T05:20:17;1.95;;;1.70;;
51995;SDS011;38010;53.264;6.592;2023-02-22T05:22:56;2.25;;;1.70;;
51995;SDS011;38010;53.264;6.592;2023-02-22T05:25:23;1.73;;;1.40;;
51995;SDS011;38010;53.264;6.592;2023-02-22T05:28:00;1.80;;;1.40;;
51995;SDS011;38010;53.264;6.592;2023-02-22T05:30:29;1.77;;;1.40;;
51995;SDS011;38010;53.264;6.592;2023-02-22T05:32:58;1.55;;;1.30;;
51995;SDS011;38010;53.264;6.592;2023-02-22T05:35:24;2.15;;;1.60;;
51995;SDS011;38010;53.264;6.592;2023-02-22T05:37:50;2.70;;;1.95;;
51995;SDS011;38010;53.264;6.592;2023-02-22T05:40:17;2.60;;;1.70;;
51995;SDS011;38010;53.264;6.592;2023-02-22T05:42:44;2.28;;;1.75;;
51995;SDS011;38010;53.264;6.592;2023-02-22T05:45:14;2.30;;;1.60;;
51995;SDS011;38010;53.264;6.592;2023-02-22T05:47:41;1.95;;;1.55;;
51995;SDS011;38010;53.264;6.592;2023-02-22T05:50:07;1.83;;;1.50;;
51995;SDS011;38010;53.264;6.592;2023-02-22T05:52:33;2.45;;;1.60;;
51995;SDS011;38010;53.264;6.592;2023-02-22T05:54:59;1.90;;;1.50;;
51995;SDS011;38010;53.264;6.592;2023-02-22T05:57:25;2.33;;;1.88;;
51995;SDS011;38010;53.264;6.592;2023-02-22T05:59:50;2.08;;;1.60;;
51995;SDS011;38010;53.264;6.592;2023-02-22T06:02:16;2.42;;;1.75;;
51995;SDS011;38010;53.264;6.592;2023-02-22T06:04:45;2.33;;;1.70;;
51995;SDS011;38010;53.264;6.592;2023-02-22T06:07:11;2.45;;;2.00;;
51995;SDS011;38010;53.264;6.592;2023-02-22T06:09:38;2.47;;;1.52;;
51995;SDS011;38010;53.264;6.592;2023-02-22T06:12:04;2.17;;;1.70;;
51995;SDS011;38010;53.264;6.592;2023-02-22T06:14:30;2.30;;;1.80;;
51995;SDS011;38010;53.264;6.592;2023-02-22T06:16:56;2.25;;;2.03;;
51995;SDS011;38010;53.264;6.592;2023-02-22T06:19:23;2.40;;;1.92;;
51995;SDS011;38010;53.264;6.592;2023-02-22T06:21:49;3.08;;;1.98;;
51995;SDS011;38010;53.264;6.592;2023-02-22T06:24:16;2.28;;;1.98;;
51995;SDS011;38010;53.264;6.592;2023-02-22T06:26:42;3.35;;;2.20;;
51995;SDS011;38010;53.264;6.592;2023-02-22T06:29:07;2.42;;;1.75;;
51995;SDS011;38010;53.264;6.592;2023-02-22T06:31:33;2.30;;;1.85;;
51995;SDS011;38010;53.264;6.592;2023-02-22T06:34:00;3.33;;;2.45;;
51995;SDS011;38010;53.264;6.592;2023-02-22T06:36:26;3.00;;;2.20;;
51995;SDS011;38010;53.264;6.592;2023-02-22T06:38:52;3.03;;;2.13;;
51995;SDS011;38010;53.264;6.592;2023-02-22T06:41:20;2.55;;;1.90;;
51995;SDS011;38010;53.264;6.592;2023-02-22T06:43:46;2.92;;;2.35;;
51995;SDS011;38010;53.264;6.592;2023-02-22T06:46:12;2.20;;;1.75;;
51995;SDS011;38010;53.264;6.592;2023-02-22T06:48:38;2.83;;;2.15;;
51995;SDS011;38010;53.264;6.592;2023-02-22T06:51:07;5.20;;;2.70;;
51995;SDS011;38010;53.264;6.592;2023-02-22T06:53:34;26.02;;;12.40;;
51995;SDS011;38010;53.264;6.592;2023-02-22T06:56:00;24.75;;;13.95;;
51995;SDS011;38010;53.264;6.592;2023-02-22T06:58:26;25.95;;;14.38;;
51995;SDS011;38010;53.264;6.592;2023-02-22T07:00:52;22.90;;;12.27;;
51995;SDS011;38010;53.264;6.592;2023-02-22T07:03:18;21.23;;;12.05;;
51995;SDS011;38010;53.264;6.592;2023-02-22T07:05:44;22.33;;;11.93;;
51995;SDS011;38010;53.264;6.592;2023-02-22T07:08:10;23.70;;;11.77;;
51995;SDS011;38010;53.264;6.592;2023-02-22T07:10:37;20.13;;;10.73;;
51995;SDS011;38010;53.264;6.592;2023-02-22T07:13:03;16.02;;;9.77;;
51995;SDS011;38010;53.264;6.592;2023-02-22T07:15:31;16.63;;;9.75;;
51995;SDS011;38010;53.264;6.592;2023-02-22T07:17:58;14.93;;;8.60;;
51995;SDS011;38010;53.264;6.592;2023-02-22T07:20:25;17.17;;;9.30;;
51995;SDS011;38010;53.264;6.592;2023-02-22T07:22:52;14.43;;;8.50;;
51995;SDS011;38010;53.264;6.592;2023-02-22T07:25:18;16.27;;;8.75;;
51995;SDS011;38010;53.264;6.592;2023-02-22T07:27:44;11.82;;;7.75;;
51995;SDS011;38010;53.264;6.592;2023-02-22T07:32:42;12.00;;;7.65;;
51995;SDS011;38010;53.264;6.592;2023-02-22T07:35:15;12.43;;;7.82;;
51995;SDS011;38010;53.264;6.592;2023-02-22T07:37:43;12.30;;;7.65;;
51995;SDS011;38010;53.264;6.592;2023-02-22T07:40:10;12.80;;;7.30;;
51995;SDS011;38010;53.264;6.592;2023-02-22T07:45:26;8.60;;;6.65;;
51995;SDS011;38010;53.264;6.592;2023-02-22T07:47:57;12.15;;;7.10;;
51995;SDS011;38010;53.264;6.592;2023-02-22T07:50:24;8.73;;;6.10;;
51995;SDS011;38010;53.264;6.592;2023-02-22T07:52:52;9.25;;;6.80;;
51995;SDS011;38010;53.264;6.592;2023-02-22T07:55:20;9.70;;;6.65;;
51995;SDS011;38010;53.264;6.592;2023-02-22T07:57:48;10.55;;;6.60;;
51995;SDS011;38010;53.264;6.592;2023-02-22T08:00:19;9.18;;;6.22;;
51995;SDS011;38010;53.264;6.592;2023-02-22T08:02:50;9.60;;;6.10;;
51995;SDS011;38010;53.264;6.592;2023-02-22T08:05:16;10.00;;;6.53;;
51995;SDS011;38010;53.264;6.592;2023-02-22T08:07:43;9.65;;;6.55;;
51995;SDS011;38010;53.264;6.592;2023-02-22T08:10:09;8.57;;;6.30;;
51995;SDS011;38010;53.264;6.592;2023-02-22T08:12:36;8.88;;;5.80;;
51995;SDS011;38010;53.264;6.592;2023-02-22T08:15:03;10.18;;;6.93;;
51995;SDS011;38010;53.264;6.592;2023-02-22T08:17:29;9.07;;;6.45;;
51995;SDS011;38010;53.264;6.592;2023-02-22T08:19:55;10.02;;;6.55;;
51995;SDS011;38010;53.264;6.592;2023-02-22T08:22:21;9.18;;;6.55;;
51995;SDS011;38010;53.264;6.592;2023-02-22T08:24:46;7.53;;;5.80;;
51995;SDS011;38010;53.264;6.592;2023-02-22T08:27:12;9.15;;;6.63;;
51995;SDS011;38010;53.264;6.592;2023-02-22T08:29:38;7.82;;;6.38;;
51995;SDS011;38010;53.264;6.592;2023-02-22T08:32:06;9.85;;;6.78;;
51995;SDS011;38010;53.264;6.592;2023-02-22T08:34:32;10.00;;;6.95;;
51995;SDS011;38010;53.264;6.592;2023-02-22T08:36:58;9.55;;;6.57;;
51995;SDS011;38010;53.264;6.592;2023-02-22T08:39:24;8.55;;;5.97;;
51995;SDS011;38010;53.264;6.592;2023-02-22T08:41:49;9.70;;;6.72;;
51995;SDS011;38010;53.264;6.592;2023-02-22T08:44:15;9.82;;;6.95;;
51995;SDS011;38010;53.264;6.592;2023-02-22T08:46:41;9.38;;;6.75;;
51995;SDS011;38010;53.264;6.592;2023-02-22T08:49:06;10.40;;;6.88;;
51995;SDS011;38010;53.264;6.592;2023-02-22T08:51:35;8.80;;;7.28;;
51995;SDS011;38010;53.264;6.592;2023-02-22T08:54:02;9.68;;;7.53;;
51995;SDS011;38010;53.264;6.592;2023-02-22T08:56:28;8.98;;;6.55;;
51995;SDS011;38010;53.264;6.592;2023-02-22T08:58:54;8.57;;;7.00;;
51995;SDS011;38010;53.264;6.592;2023-02-22T09:01:21;10.02;;;7.93;;
51995;SDS011;38010;53.264;6.592;2023-02-22T09:03:53;9.80;;;7.78;;
51995;SDS011;38010;53.264;6.592;2023-02-22T09:06:20;8.25;;;6.68;;
51995;SDS011;38010;53.264;6.592;2023-02-22T09:08:46;8.70;;;7.13;;
51995;SDS011;38010;53.264;6.592;2023-02-22T09:11:12;9.73;;;7.55;;
51995;SDS011;38010;53.264;6.592;2023-02-22T09:13:37;9.50;;;7.28;;
51995;SDS011;38010;53.264;6.592;2023-02-22T09:16:03;9.27;;;7.65;;
51995;SDS011;38010;53.264;6.592;2023-02-22T09:18:29;9.07;;;7.30;;
51995;SDS011;38010;53.264;6.592;2023-02-22T09:20:55;8.38;;;6.75;;
51995;SDS011;38010;53.264;6.592;2023-02-22T09:23:20;9.05;;;6.80;;
51995;SDS011;38010;53.264;6.592;2023-02-22T09:25:46;9.38;;;7.32;;
51995;SDS011;38010;53.264;6.592;2023-02-22T09:28:12;9.88;;;6.97;;
51995;SDS011;38010;53.264;6.592;2023-02-22T09:30:38;9.30;;;7.20;;
51995;SDS011;38010;53.264;6.592;2023-02-22T09:33:06;10.13;;;7.03;;
51995;SDS011;38010;53.264;6.592;2023-02-22T09:35:39;8.27;;;7.10;;
51995;SDS011;38010;53.264;6.592;2023-02-22T09:38:07;8.10;;;6.50;;
51995;SDS011;38010;53.264;6.592;2023-02-22T09:40:38;9.25;;;7.15;;
51995;SDS011;38010;53.264;6.592;2023-02-22T09:49:03;9.02;;;7.65;;
51995;SDS011;38010;53.264;6.592;2023-02-22T09:54:20;10.55;;;8.15;;
51995;SDS011;38010;53.264;6.592;2023-02-22T09:56:55;10.25;;;7.65;;
51995;SDS011;38010;53.264;6.592;2023-02-22T09:59:26;11.43;;;8.18;;
51995;SDS011;38010;53.264;6.592;2023-02-22T10:02:01;9.02;;;7.00;;
51995;SDS011;38010;53.264;6.592;2023-02-22T10:04:41;9.25;;;7.50;;
51995;SDS011;38010;53.264;6.592;2023-02-22T10:09:50;9.20;;;7.78;;
51995;SDS011;38010;53.264;6.592;2023-02-22T10:17:55;9.70;;;7.97;;
51995;SDS011;38010;53.264;6.592;2023-02-22T10:31:55;10.10;;;7.97;;
51995;SDS011;38010;53.264;6.592;2023-02-22T10:34:40;8.85;;;7.20;;
51995;SDS011;38010;53.264;6.592;2023-02-22T10:37:27;10.25;;;8.30;;
51995;SDS011;38010;53.264;6.592;2023-02-22T10:40:00;10.38;;;8.27;;
51995;SDS011;38010;53.264;6.592;2023-02-22T10:42:44;10.88;;;8.43;;
51995;SDS011;38010;53.264;6.592;2023-02-22T10:47:49;10.05;;;8.43;;
51995;SDS011;38010;53.264;6.592;2023-02-22T10:50:15;9.23;;;7.78;;
51995;SDS011;38010;53.264;6.592;2023-02-22T10:52:42;11.85;;;8.68;;
51995;SDS011;38010;53.264;6.592;2023-02-22T10:55:11;9.90;;;8.02;;
51995;SDS011;38010;53.264;6.592;2023-02-22T10:57:41;10.05;;;8.13;;
51995;SDS011;38010;53.264;6.592;2023-02-22T11:03:19;10.50;;;8.52;;
51995;SDS011;38010;53.264;6.592;2023-02-22T11:05:46;9.07;;;7.97;;
51995;SDS011;38010;53.264;6.592;2023-02-22T11:10:45;9.32;;;8.38;;
51995;SDS011;38010;53.264;6.592;2023-02-22T11:13:32;11.30;;;8.55;;
51995;SDS011;38010;53.264;6.592;2023-02-22T11:16:18;9.73;;;8.30;;
51995;SDS011;38010;53.264;6.592;2023-02-22T11:18:48;9.70;;;8.32;;
51995;SDS011;38010;53.264;6.592;2023-02-22T11:21:19;10.73;;;8.02;;
51995;SDS011;38010;53.264;6.592;2023-02-22T11:23:47;10.25;;;8.70;;
51995;SDS011;38010;53.264;6.592;2023-02-22T11:26:16;10.05;;;8.73;;
51995;SDS011;38010;53.264;6.592;2023-02-22T11:28:50;9.75;;;8.30;;
51995;SDS011;38010;53.264;6.592;2023-02-22T11:31:23;9.60;;;8.57;;
51995;SDS011;38010;53.264;6.592;2023-02-22T11:33:53;10.63;;;8.52;;
51995;SDS011;38010;53.264;6.592;2023-02-22T11:36:39;10.20;;;8.75;;
51995;SDS011;38010;53.264;6.592;2023-02-22T11:39:27;10.30;;;8.57;;
51995;SDS011;38010;53.264;6.592;2023-02-22T11:41:54;9.85;;;8.45;;
51995;SDS011;38010;53.264;6.592;2023-02-22T11:44:30;9.77;;;7.90;;
51995;SDS011;38010;53.264;6.592;2023-02-22T11:46:57;10.48;;;8.52;;
51995;SDS011;38010;53.264;6.592;2023-02-22T11:49:34;10.95;;;9.05;;
51995;SDS011;38010;53.264;6.592;2023-02-22T12:11:19;10.10;;;8.05;;
51995;SDS011;38010;53.264;6.592;2023-02-22T12:13:58;10.50;;;9.18;;
51995;SDS011;38010;53.264;6.592;2023-02-22T12:19:32;11.40;;;9.27;;
51995;SDS011;38010;53.264;6.592;2023-02-22T12:22:23;10.38;;;8.68;;
51995;SDS011;38010;53.264;6.592;2023-02-22T12:27:30;9.10;;;7.68;;
51995;SDS011;38010;53.264;6.592;2023-02-22T12:30:03;11.35;;;8.43;;
51995;SDS011;38010;53.264;6.592;2023-02-22T12:32:51;10.10;;;8.80;;
51995;SDS011;38010;53.264;6.592;2023-02-22T12:35:23;11.68;;;9.60;;
51995;SDS011;38010;53.264;6.592;2023-02-22T12:46:04;9.35;;;8.00;;
51995;SDS011;38010;53.264;6.592;2023-02-22T12:49:09;9.43;;;8.30;;
51995;SDS011;38010;53.264;6.592;2023-02-22T12:57:34;10.05;;;8.60;;
51995;SDS011;38010;53.264;6.592;2023-02-22T13:03:26;11.40;;;8.95;;
51995;SDS011;38010;53.264;6.592;2023-02-22T13:05:59;11.15;;;8.65;;
51995;SDS011;38010;53.264;6.592;2023-02-22T13:08:36;11.05;;;8.52;;
51995;SDS011;38010;53.264;6.592;2023-02-22T13:11:19;10.20;;;8.40;;
51995;SDS011;38010;53.264;6.592;2023-02-22T13:21:46;9.68;;;8.35;;
51995;SDS011;38010;53.264;6.592;2023-02-22T13:24:39;10.10;;;8.70;;
51995;SDS011;38010;53.264;6.592;2023-02-22T13:27:18;10.88;;;8.95;;
51995;SDS011;38010;53.264;6.592;2023-02-22T13:29:51;10.77;;;8.73;;
51995;SDS011;38010;53.264;6.592;2023-02-22T13:32:35;9.90;;;8.27;;
51995;SDS011;38010;53.264;6.592;2023-02-22T13:52:27;10.15;;;7.65;;
51995;SDS011;38010;53.264;6.592;2023-02-22T13:54:59;10.80;;;8.40;;
51995;SDS011;38010;53.264;6.592;2023-02-22T13:57:36;9.40;;;7.55;;
51995;SDS011;38010;53.264;6.592;2023-02-22T14:08:04;10.77;;;8.02;;
51995;SDS011;38010;53.264;6.592;2023-02-22T14:10:38;10.00;;;8.38;;
51995;SDS011;38010;53.264;6.592;2023-02-22T14:13:09;9.13;;;7.57;;
51995;SDS011;38010;53.264;6.592;2023-02-22T14:16:14;9.93;;;7.78;;
51995;SDS011;38010;53.264;6.592;2023-02-22T14:18:35;9.10;;;7.13;;
51995;SDS011;38010;53.264;6.592;2023-02-22T14:23:39;9.05;;;7.28;;
51995;SDS011;38010;53.264;6.592;2023-02-22T14:26:10;9.52;;;7.63;;
51995;SDS011;38010;53.264;6.592;2023-02-22T14:31:19;9.68;;;7.55;;
51995;SDS011;38010;53.264;6.592;2023-02-22T14:36:23;9.07;;;7.65;;
51995;SDS011;38010;53.264;6.592;2023-02-22T14:38:54;9.25;;;7.05;;
51995;SDS011;38010;53.264;6.592;2023-02-22T14:41:27;8.23;;;6.60;;
51995;SDS011;38010;53.264;6.592;2023-02-22T14:43:55;8.20;;;6.70;;
51995;SDS011;38010;53.264;6.592;2023-02-22T14:46:23;6.97;;;5.88;;
51995;SDS011;38010;53.264;6.592;2023-02-22T14:48:56;7.15;;;5.63;;
51995;SDS011;38010;53.264;6.592;2023-02-22T14:51:29;6.30;;;5.22;;
51995;SDS011;38010;53.264;6.592;2023-02-22T14:56:31;5.93;;;4.82;;
51995;SDS011;38010;53.264;6.592;2023-02-22T15:01:42;6.15;;;4.70;;
51995;SDS011;38010;53.264;6.592;2023-02-22T15:04:21;6.63;;;5.07;;
51995;SDS011;38010;53.264;6.592;2023-02-22T15:06:50;7.20;;;5.10;;
51995;SDS011;38010;53.264;6.592;2023-02-22T15:09:18;9.20;;;5.07;;
51995;SDS011;38010;53.264;6.592;2023-02-22T15:14:33;5.82;;;4.65;;
51995;SDS011;38010;53.264;6.592;2023-02-22T15:17:21;5.43;;;4.18;;
51995;SDS011;38010;53.264;6.592;2023-02-22T15:19:51;6.50;;;4.43;;
51995;SDS011;38010;53.264;6.592;2023-02-22T15:22:23;6.55;;;5.10;;
51995;SDS011;38010;53.264;6.592;2023-02-22T15:24:58;5.97;;;4.55;;
51995;SDS011;38010;53.264;6.592;2023-02-22T15:27:25;6.57;;;4.97;;
51995;SDS011;38010;53.264;6.592;2023-02-22T15:29:58;6.22;;;4.95;;
51995;SDS011;38010;53.264;6.592;2023-02-22T15:32:36;6.10;;;4.63;;
51995;SDS011;38010;53.264;6.592;2023-02-22T15:35:18;6.63;;;4.68;;
51995;SDS011;38010;53.264;6.592;2023-02-22T15:38:01;6.38;;;4.68;;
51995;SDS011;38010;53.264;6.592;2023-02-22T15:40:30;6.35;;;4.90;;
51995;SDS011;38010;53.264;6.592;2023-02-22T15:43:00;6.35;;;5.20;;
51995;SDS011;38010;53.264;6.592;2023-02-22T15:45:33;6.35;;;4.78;;
51995;SDS011;38010;53.264;6.592;2023-02-22T15:47:59;6.10;;;4.85;;
51995;SDS011;38010;53.264;6.592;2023-02-22T15:50:26;6.00;;;4.68;;
51995;SDS011;38010;53.264;6.592;2023-02-22T15:52:55;7.95;;;5.22;;
51995;SDS011;38010;53.264;6.592;2023-02-22T15:55:28;6.03;;;4.78;;
51995;SDS011;38010;53.264;6.592;2023-02-22T15:58:39;6.88;;;5.32;;
51995;SDS011;38010;53.264;6.592;2023-02-22T16:00:49;7.45;;;5.38;;
51995;SDS011;38010;53.264;6.592;2023-02-22T16:03:22;6.93;;;4.57;;
51995;SDS011;38010;53.264;6.592;2023-02-22T16:05:51;6.47;;;5.20;;
51995;SDS011;38010;53.264;6.592;2023-02-22T16:08:34;7.57;;;5.47;;
51995;SDS011;38010;53.264;6.592;2023-02-22T16:11:08;9.38;;;6.20;;
51995;SDS011;38010;53.264;6.592;2023-02-22T16:13:55;9.73;;;7.00;;
51995;SDS011;38010;53.264;6.592;2023-02-22T16:16:30;11.05;;;8.00;;
51995;SDS011;38010;53.264;6.592;2023-02-22T16:22:05;10.20;;;7.60;;
51995;SDS011;38010;53.264;6.592;2023-02-22T16:24:37;14.68;;;9.50;;
51995;SDS011;38010;53.264;6.592;2023-02-22T16:29:42;11.40;;;8.10;;
51995;SDS011;38010;53.264;6.592;2023-02-22T16:32:23;10.90;;;8.70;;
51995;SDS011;38010;53.264;6.592;2023-02-22T16:34:49;9.98;;;7.75;;
51995;SDS011;38010;53.264;6.592;2023-02-22T16:37:21;10.38;;;7.82;;
51995;SDS011;38010;53.264;6.592;2023-02-22T16:39:48;11.00;;;8.07;;
51995;SDS011;38010;53.264;6.592;2023-02-22T16:42:16;11.20;;;8.02;;
51995;SDS011;38010;53.264;6.592;2023-02-22T16:44:51;9.63;;;7.50;;
51995;SDS011;38010;53.264;6.592;2023-02-22T16:47:17;10.55;;;7.78;;
51995;SDS011;38010;53.264;6.592;2023-02-22T16:49:47;9.50;;;6.82;;
51995;SDS011;38010;53.264;6.592;2023-02-22T16:52:16;10.68;;;7.25;;
51995;SDS011;38010;53.264;6.592;2023-02-22T16:54:43;10.55;;;7.32;;
51995;SDS011;38010;53.264;6.592;2023-02-22T16:57:20;10.18;;;7.10;;
51995;SDS011;38010;53.264;6.592;2023-02-22T16:59:46;11.00;;;7.72;;
51995;SDS011;38010;53.264;6.592;2023-02-22T17:02:16;9.40;;;7.38;;
51995;SDS011;38010;53.264;6.592;2023-02-22T17:04:42;9.07;;;6.88;;
51995;SDS011;38010;53.264;6.592;2023-02-22T17:07:18;9.27;;;6.80;;
51995;SDS011;38010;53.264;6.592;2023-02-22T17:09:45;8.43;;;6.35;;
51995;SDS011;38010;53.264;6.592;2023-02-22T17:12:11;9.18;;;6.82;;
51995;SDS011;38010;53.264;6.592;2023-02-22T17:14:37;11.38;;;6.88;;
51995;SDS011;38010;53.264;6.592;2023-02-22T17:17:05;11.52;;;6.72;;
51995;SDS011;38010;53.264;6.592;2023-02-22T17:19:31;8.07;;;6.03;;
51995;SDS011;38010;53.264;6.592;2023-02-22T17:21:57;10.32;;;6.95;;
51995;SDS011;38010;53.264;6.592;2023-02-22T17:24:23;9.45;;;6.32;;
51995;SDS011;38010;53.264;6.592;2023-02-22T17:26:53;9.70;;;6.88;;
51995;SDS011;38010;53.264;6.592;2023-02-22T17:29:21;9.02;;;6.40;;
51995;SDS011;38010;53.264;6.592;2023-02-22T17:31:47;8.38;;;6.20;;
51995;SDS011;38010;53.264;6.592;2023-02-22T17:34:14;8.50;;;5.80;;
51995;SDS011;38010;53.264;6.592;2023-02-22T17:36:40;7.47;;;5.75;;
51995;SDS011;38010;53.264;6.592;2023-02-22T17:39:06;8.00;;;5.88;;
51995;SDS011;38010;53.264;6.592;2023-02-22T17:41:34;7.68;;;5.95;;
51995;SDS011;38010;53.264;6.592;2023-02-22T17:44:00;7.30;;;5.85;;
51995;SDS011;38010;53.264;6.592;2023-02-22T17:46:26;7.43;;;5.70;;
51995;SDS011;38010;53.264;6.592;2023-02-22T17:48:52;8.77;;;6.45;;
51995;SDS011;38010;53.264;6.592;2023-02-22T17:51:21;8.77;;;6.32;;
51995;SDS011;38010;53.264;6.592;2023-02-22T17:53:50;7.30;;;5.72;;
51995;SDS011;38010;53.264;6.592;2023-02-22T17:56:16;9.02;;;6.30;;
51995;SDS011;38010;53.264;6.592;2023-02-22T17:58:44;8.45;;;6.05;;